createdAt,value
2024-03-07T00:01:10.341Z,73.55
2024-03-07T00:03:40.248Z,73.35
2024-03-07T00:06:09.988Z,73.23
2024-03-07T00:08:38.686Z,73.51
2024-03-07T00:11:06.058Z,73.88
2024-03-07T00:13:33.510Z,73.85
2024-03-07T00:16:00.837Z,73.64
2024-03-07T00:18:28.707Z,73.83
2024-03-07T00:20:57.215Z,73.29
2024-03-07T00:23:24.529Z,73.62
2024-03-07T00:25:52.860Z,73.77
2024-03-07T00:28:21.622Z,72.82
2024-03-07T00:30:49.078Z,73.29
2024-03-07T00:33:17.102Z,73.50
2024-03-07T00:35:45.946Z,73.72
2024-03-07T00:38:16.286Z,73.19
2024-03-07T00:40:43.699Z,73.62
2024-03-07T00:43:12.213Z,73.01
2024-03-07T00:45:39.949Z,73.16
2024-03-07T00:48:07.489Z,73.12
2024-03-07T00:50:35.981Z,73.34
2024-03-07T00:53:03.570Z,73.33
2024-03-07T00:55:31.099Z,73.06
2024-03-07T00:57:58.411Z,73.26
2024-03-07T01:00:25.808Z,73.71
2024-03-07T01:02:54.905Z,73.20
2024-03-07T01:05:23.353Z,73.56
2024-03-07T01:07:51.692Z,73.81
2024-03-07T01:10:19.334Z,73.71
2024-03-07T01:12:46.838Z,73.27
2024-03-07T01:15:16.304Z,73.72
2024-03-07T01:17:43.709Z,74.09
2024-03-07T01:20:12.857Z,73.41
2024-03-07T01:22:40.350Z,73.24
2024-03-07T01:25:08.739Z,74.24
2024-03-07T01:27:36.285Z,74.33
2024-03-07T01:30:03.703Z,73.88
2024-03-07T01:32:32.675Z,73.83
2024-03-07T01:35:01.071Z,73.95
2024-03-07T01:37:28.781Z,73.78
2024-03-07T01:39:56.170Z,73.58
2024-03-07T01:42:25.489Z,73.79
2024-03-07T01:44:53.141Z,73.93
2024-03-07T01:47:21.953Z,73.97
2024-03-07T01:49:51.068Z,74.10
2024-03-07T01:52:19.453Z,73.83
2024-03-07T01:54:48.168Z,74.12
2024-03-07T01:57:17.216Z,74.04
2024-03-07T01:59:44.882Z,74.09
2024-03-07T02:02:13.258Z,73.54
2024-03-07T02:04:40.764Z,73.67
2024-03-07T02:07:12.628Z,74.06
2024-03-07T02:09:40.733Z,73.46
2024-03-07T02:12:10.267Z,73.44
2024-03-07T02:14:37.838Z,73.69
2024-03-07T02:17:05.476Z,74.24
2024-03-07T02:19:33.391Z,73.95
2024-03-07T02:22:01.047Z,74.05
2024-03-07T02:24:28.390Z,73.84
2024-03-07T02:26:55.943Z,73.78
2024-03-07T02:29:23.390Z,74.18
2024-03-07T02:31:50.753Z,74.10
2024-03-07T02:34:18.079Z,73.87
2024-03-07T02:36:45.345Z,74.16
2024-03-07T02:39:13.168Z,74.16
2024-03-07T02:41:40.589Z,74.31
2024-03-07T02:44:07.879Z,74.02
2024-03-07T02:46:35.293Z,74.07
2024-03-07T02:49:02.667Z,74.45
2024-03-07T02:51:32.703Z,74.23
2024-03-07T02:54:00.332Z,74.29
2024-03-07T02:56:28.661Z,74.32
2024-03-07T02:58:56.057Z,73.84
2024-03-07T03:01:23.725Z,74.24
2024-03-07T03:03:51.214Z,73.65
2024-03-07T03:06:21.795Z,73.73
2024-03-07T03:08:49.402Z,73.77
2024-03-07T03:11:16.799Z,73.16
2024-03-07T03:13:44.569Z,73.39
2024-03-07T03:16:11.912Z,72.90
2024-03-07T03:18:39.145Z,73.25
2024-03-07T03:21:06.874Z,72.79
2024-03-07T03:23:35.957Z,72.71
2024-03-07T03:26:04.948Z,73.13
2024-03-07T03:28:32.993Z,73.11
2024-03-07T03:31:00.369Z,72.42
2024-03-07T03:33:27.978Z,72.56
2024-03-07T03:35:56.917Z,72.65
2024-03-07T03:38:24.895Z,72.31
2024-03-07T03:40:54.703Z,72.37
2024-03-07T03:43:22.144Z,72.52
2024-03-07T03:45:49.438Z,72.74
2024-03-07T03:48:16.945Z,72.32
2024-03-07T03:50:44.402Z,72.91
2024-03-07T03:53:12.219Z,72.63
2024-03-07T03:55:39.771Z,72.18
2024-03-07T03:58:07.178Z,72.20
2024-03-07T04:00:35.781Z,72.05
2024-03-07T04:03:04.003Z,72.28
2024-03-07T04:05:33.760Z,72.01
2024-03-07T04:08:01.997Z,72.23
2024-03-07T04:10:33.033Z,72.30
2024-03-07T04:13:00.390Z,72.25
2024-03-07T04:15:28.211Z,72.44
2024-03-07T04:17:56.133Z,72.68
2024-03-07T04:20:26.090Z,72.88
2024-03-07T04:22:53.465Z,72.94
2024-03-07T04:25:21.257Z,72.95
2024-03-07T04:27:50.874Z,73.04
2024-03-07T04:30:18.464Z,72.49
2024-03-07T04:32:46.827Z,72.47
2024-03-07T04:35:18.144Z,72.77
2024-03-07T04:37:50.096Z,72.40
2024-03-07T04:40:18.866Z,72.18
2024-03-07T04:42:48.215Z,72.58
2024-03-07T04:45:15.563Z,71.92
2024-03-07T04:47:43.292Z,71.94
2024-03-07T04:50:14.001Z,72.19
2024-03-07T04:52:41.566Z,71.89
2024-03-07T04:55:11.401Z,72.42
2024-03-07T04:57:40.975Z,71.96
2024-03-07T05:00:09.228Z,72.35
2024-03-07T05:02:38.139Z,71.96
2024-03-07T05:05:05.676Z,71.87
2024-03-07T05:07:33.295Z,71.58
2024-03-07T05:10:00.654Z,72.14
2024-03-07T05:12:28.014Z,72.11
2024-03-07T05:14:55.734Z,72.04
2024-03-07T05:17:23.368Z,72.26
2024-03-07T05:19:51.097Z,71.91
2024-03-07T05:22:19.548Z,71.97
2024-03-07T05:24:47.000Z,71.57
2024-03-07T05:27:14.505Z,71.40
2024-03-07T05:29:43.269Z,71.69
2024-03-07T05:32:24.205Z,71.10
2024-03-07T05:34:52.836Z,70.86
2024-03-07T05:37:22.811Z,70.94
2024-03-07T05:39:50.869Z,70.33
2024-03-07T05:42:18.362Z,71.03
2024-03-07T05:44:46.625Z,70.81
2024-03-07T05:47:15.205Z,70.10
2024-03-07T05:49:42.649Z,70.39
2024-03-07T05:52:11.026Z,70.38
2024-03-07T05:54:39.306Z,70.27
2024-03-07T05:57:09.486Z,70.22
2024-03-07T05:59:37.676Z,70.58
2024-03-07T06:02:06.411Z,70.13
2024-03-07T06:04:35.781Z,70.03
2024-03-07T06:07:05.172Z,69.71
2024-03-07T06:09:34.099Z,69.71
2024-03-07T06:12:07.667Z,70.25
2024-03-07T06:14:41.658Z,69.91
2024-03-07T06:17:12.018Z,69.51
2024-03-07T06:19:39.414Z,69.72
2024-03-07T06:22:10.033Z,69.91
2024-03-07T06:24:41.554Z,69.58
2024-03-07T06:27:17.591Z,69.72
2024-03-07T06:29:45.868Z,69.38
2024-03-07T06:32:14.273Z,69.73
2024-03-07T06:34:41.689Z,69.34
2024-03-07T06:37:09.818Z,69.40
2024-03-07T06:39:37.304Z,69.02
2024-03-07T06:42:06.991Z,69.01
2024-03-07T06:44:34.533Z,69.12
2024-03-07T06:47:02.031Z,68.42
2024-03-07T06:49:29.570Z,68.34
2024-03-07T06:51:58.186Z,68.80
2024-03-07T06:54:26.132Z,68.67
2024-03-07T06:56:53.547Z,68.09
2024-03-07T06:59:20.998Z,68.66
2024-03-07T07:01:48.651Z,68.38
2024-03-07T07:04:16.550Z,68.19
2024-03-07T07:06:44.309Z,68.56
2024-03-07T07:09:12.524Z,68.31
2024-03-07T07:11:40.229Z,68.25
2024-03-07T07:14:08.539Z,68.49
2024-03-07T07:16:37.141Z,68.14
2024-03-07T07:19:05.224Z,68.36
2024-03-07T07:21:32.632Z,68.13
2024-03-07T07:24:00.313Z,68.70
2024-03-07T07:26:29.557Z,67.99
2024-03-07T07:28:58.184Z,68.44
2024-03-07T07:31:27.173Z,67.80
2024-03-07T07:33:55.044Z,67.58
2024-03-07T07:36:22.579Z,68.29
2024-03-07T07:38:50.155Z,68.06
2024-03-07T07:41:18.480Z,67.85
2024-03-07T07:43:47.765Z,68.24
2024-03-07T07:46:17.267Z,67.93
2024-03-07T07:48:45.673Z,67.94
2024-03-07T07:51:14.099Z,68.40
2024-03-07T07:53:42.146Z,68.16
2024-03-07T07:56:11.696Z,67.99
2024-03-07T07:58:39.129Z,67.80
2024-03-07T08:01:09.392Z,67.51
2024-03-07T08:03:37.945Z,67.09
2024-03-07T08:06:05.458Z,67.04
2024-03-07T08:08:34.778Z,66.87
2024-03-07T08:11:03.650Z,66.95
2024-03-07T08:13:31.870Z,66.44
2024-03-07T08:16:00.964Z,66.76
2024-03-07T08:18:28.600Z,66.20
2024-03-07T08:20:57.897Z,66.94
2024-03-07T08:23:27.954Z,66.56
2024-03-07T08:25:56.457Z,66.51
2024-03-07T08:28:24.784Z,66.69
2024-03-07T08:30:52.228Z,66.00
2024-03-07T08:33:23.290Z,66.37
2024-03-07T08:35:54.401Z,66.31
2024-03-07T08:38:22.863Z,65.88
2024-03-07T08:40:50.152Z,66.29
2024-03-07T08:43:17.517Z,65.44
2024-03-07T08:45:46.506Z,65.32
2024-03-07T08:48:24.961Z,64.96
2024-03-07T08:50:54.012Z,64.76
2024-03-07T08:53:21.577Z,65.01
2024-03-07T08:55:49.040Z,64.88
2024-03-07T08:58:17.735Z,65.13
2024-03-07T09:00:47.012Z,64.39
2024-03-07T09:03:20.023Z,64.82
2024-03-07T09:05:47.852Z,64.43
2024-03-07T09:08:15.461Z,64.95
2024-03-07T09:10:45.689Z,65.19
2024-03-07T09:13:13.396Z,64.37
2024-03-07T09:15:41.740Z,65.14
2024-03-07T09:18:13.350Z,64.98
2024-03-07T09:20:42.355Z,64.76
2024-03-07T09:23:10.932Z,64.04
2024-03-07T09:25:38.598Z,63.85
2024-03-07T09:28:07.824Z,63.81
2024-03-07T09:30:40.001Z,63.60
2024-03-07T09:33:12.374Z,63.81
2024-03-07T09:35:40.605Z,63.18
2024-03-07T09:38:08.745Z,63.32
2024-03-07T09:40:36.829Z,63.48
2024-03-07T09:43:04.446Z,62.82
2024-03-07T09:45:33.144Z,62.96
2024-03-07T09:48:03.823Z,63.02
2024-03-07T09:50:32.897Z,62.67
2024-03-07T09:53:01.945Z,62.28
2024-03-07T09:55:38.957Z,62.18
2024-03-07T09:58:08.223Z,62.34
2024-03-07T10:00:36.330Z,62.36
2024-03-07T10:03:08.210Z,62.31
2024-03-07T10:05:36.108Z,62.03
2024-03-07T10:08:04.486Z,61.85
2024-03-07T10:10:32.974Z,61.43
2024-03-07T10:13:02.023Z,61.23
2024-03-07T10:15:33.100Z,60.80
2024-03-07T10:18:08.578Z,59.97
2024-03-07T10:20:37.224Z,59.96
2024-03-07T10:23:04.995Z,60.41
2024-03-07T10:25:34.236Z,60.47
2024-03-07T10:28:05.347Z,60.21
2024-03-07T10:30:41.066Z,60.28
2024-03-07T10:33:08.897Z,60.50
2024-03-07T10:35:37.913Z,60.46
2024-03-07T10:38:08.729Z,60.67
2024-03-07T10:40:42.467Z,60.49
2024-03-07T10:43:14.887Z,60.62
2024-03-07T10:45:47.745Z,60.00
2024-03-07T10:48:19.098Z,60.40
2024-03-07T10:50:49.957Z,60.17
2024-03-07T10:53:27.264Z,59.97
2024-03-07T10:56:16.257Z,59.37
2024-03-07T10:59:08.721Z,59.61
2024-03-07T11:01:41.640Z,59.47
2024-03-07T11:04:09.249Z,59.22
2024-03-07T11:06:38.682Z,59.75
2024-03-07T11:09:12.268Z,58.78
2024-03-07T11:11:45.104Z,58.40
2024-03-07T11:14:13.438Z,58.05
2024-03-07T11:17:05.629Z,58.20
2024-03-07T11:19:39.090Z,57.62
2024-03-07T11:22:17.071Z,57.78
2024-03-07T11:24:46.397Z,57.69
2024-03-07T11:27:16.624Z,57.59
2024-03-07T11:29:55.562Z,57.74
2024-03-07T11:32:25.270Z,57.54
2024-03-07T11:34:55.088Z,57.59
2024-03-07T11:37:45.180Z,56.86
2024-03-07T11:40:20.125Z,56.29
2024-03-07T11:42:49.292Z,56.32
2024-03-07T11:45:26.459Z,56.24
2024-03-07T11:48:12.635Z,56.80
2024-03-07T11:50:44.310Z,55.82
2024-03-07T11:53:12.410Z,56.72
2024-03-07T11:55:46.943Z,56.60
2024-03-07T11:58:18.926Z,55.46
2024-03-07T12:00:46.651Z,55.96
2024-03-07T12:03:18.584Z,55.56
2024-03-07T12:05:47.977Z,55.37
2024-03-07T12:08:15.622Z,55.26
2024-03-07T12:10:49.586Z,54.93
2024-03-07T12:13:17.859Z,54.69
2024-03-07T12:15:45.943Z,54.87
2024-03-07T12:18:19.399Z,54.70
2024-03-07T12:20:56.324Z,54.31
2024-03-07T12:23:28.136Z,54.81
2024-03-07T12:26:03.513Z,54.07
2024-03-07T12:28:40.045Z,53.81
2024-03-07T12:31:17.145Z,53.77
2024-03-07T12:33:48.787Z,53.98
2024-03-07T12:36:17.947Z,53.65
2024-03-07T12:38:45.810Z,52.67
2024-03-07T12:41:18.097Z,52.64
2024-03-07T12:43:48.955Z,52.27
2024-03-07T12:46:17.442Z,52.66
2024-03-07T12:48:47.376Z,53.00
2024-03-07T12:51:19.876Z,52.69
2024-03-07T12:53:49.847Z,52.14
2024-03-07T12:56:19.185Z,51.66
2024-03-07T12:58:47.866Z,52.73
2024-03-07T13:01:16.345Z,52.54
2024-03-07T13:03:46.400Z,52.22
2024-03-07T13:06:14.205Z,53.12
2024-03-07T13:08:42.432Z,52.43
2024-03-07T13:11:11.876Z,53.17
2024-03-07T13:13:39.528Z,53.00
2024-03-07T13:16:07.955Z,52.56
2024-03-07T13:18:36.618Z,52.71
2024-03-07T13:21:05.999Z,52.94
2024-03-07T13:23:34.409Z,53.10
2024-03-07T13:26:02.830Z,52.69
2024-03-07T13:28:31.369Z,52.59
2024-03-07T13:30:58.829Z,52.62
2024-03-07T13:33:27.024Z,52.16
2024-03-07T13:35:55.021Z,52.18
2024-03-07T13:38:22.596Z,51.79
2024-03-07T13:40:51.297Z,52.70
2024-03-07T13:43:19.624Z,51.98
2024-03-07T13:45:49.639Z,52.62
2024-03-07T13:48:20.788Z,52.38
2024-03-07T13:50:57.178Z,52.55
2024-03-07T13:53:30.883Z,52.69
2024-03-07T13:56:06.206Z,52.83
2024-03-07T13:58:36.445Z,52.11
2024-03-07T14:01:22.246Z,51.84
2024-03-07T14:04:05.227Z,52.33
2024-03-07T14:06:41.559Z,52.30
2024-03-07T14:09:46.792Z,52.05
2024-03-07T14:12:41.950Z,51.80
2024-03-07T14:15:20.359Z,52.21
2024-03-07T14:18:21.761Z,52.22
2024-03-07T14:21:03.619Z,51.90
2024-03-07T14:24:01.830Z,51.78
2024-03-07T14:27:06.164Z,52.65
2024-03-07T14:29:51.726Z,52.58
2024-03-07T14:32:19.857Z,52.19
2024-03-07T14:34:48.724Z,51.71
2024-03-07T14:37:24.178Z,51.98
2024-03-07T14:39:52.229Z,51.72
2024-03-07T14:42:20.570Z,52.05
2024-03-07T14:44:49.720Z,52.06
2024-03-07T14:47:20.270Z,52.24
2024-03-07T14:49:47.857Z,52.41
2024-03-07T14:52:16.518Z,52.75
2024-03-07T14:54:44.055Z,52.45
2024-03-07T14:57:12.797Z,52.67
2024-03-07T14:59:42.428Z,52.84
2024-03-07T15:02:12.422Z,53.00
2024-03-07T15:04:41.115Z,53.30
2024-03-07T15:07:10.987Z,53.21
2024-03-07T15:09:39.609Z,53.09
2024-03-07T15:12:08.402Z,53.11
2024-03-07T15:14:39.098Z,53.46
2024-03-07T15:17:08.648Z,53.08
2024-03-07T15:19:38.827Z,52.76
2024-03-07T15:22:07.359Z,52.91
2024-03-07T15:24:37.749Z,52.76
2024-03-07T15:27:07.635Z,53.54
2024-03-07T15:29:39.092Z,53.69
2024-03-07T15:32:09.516Z,53.90
2024-03-07T15:34:39.295Z,53.68
2024-03-07T15:37:08.487Z,53.74
2024-03-07T15:39:40.082Z,53.76
2024-03-07T15:42:10.473Z,54.35
2024-03-07T15:44:39.887Z,53.85
2024-03-07T15:47:09.879Z,54.38
2024-03-07T15:49:42.167Z,54.69
2024-03-07T15:52:10.840Z,54.52
2024-03-07T15:54:38.689Z,54.72
2024-03-07T15:57:07.923Z,54.62
2024-03-07T15:59:36.516Z,55.10
2024-03-07T16:02:05.955Z,54.78
2024-03-07T16:04:35.184Z,55.02
2024-03-07T16:07:02.462Z,55.00
2024-03-07T16:09:29.947Z,55.11
2024-03-07T16:11:59.056Z,55.34
2024-03-07T16:14:27.051Z,56.05
2024-03-07T16:16:54.825Z,55.88
2024-03-07T16:19:23.715Z,55.85
2024-03-07T16:21:51.728Z,56.34
2024-03-07T16:24:19.002Z,56.33
2024-03-07T16:26:48.343Z,56.36
2024-03-07T16:29:16.041Z,56.09
2024-03-07T16:31:45.667Z,56.42
2024-03-07T16:34:16.520Z,56.62
2024-03-07T16:36:44.067Z,56.50
2024-03-07T16:39:13.505Z,56.57
2024-03-07T16:41:41.810Z,57.02
2024-03-07T16:44:09.809Z,57.11
2024-03-07T16:46:38.794Z,56.98
2024-03-07T16:49:09.370Z,56.75
2024-03-07T16:51:39.279Z,57.07
2024-03-07T16:54:09.429Z,56.78
2024-03-07T16:56:42.221Z,56.87
2024-03-07T16:59:11.516Z,57.25
2024-03-07T17:01:45.690Z,57.05
2024-03-07T17:04:13.987Z,57.38
2024-03-07T17:06:42.010Z,57.08
2024-03-07T17:09:12.330Z,57.37
2024-03-07T17:11:42.403Z,57.48
2024-03-07T17:14:11.254Z,57.21
2024-03-07T17:16:38.642Z,57.05
2024-03-07T17:19:11.171Z,57.58
2024-03-07T17:21:38.651Z,57.64
2024-03-07T17:24:06.257Z,57.77
2024-03-07T17:26:35.312Z,57.47
2024-03-07T17:29:02.614Z,57.64
2024-03-07T17:31:31.843Z,57.39
2024-03-07T17:33:59.172Z,57.35
2024-03-07T17:36:31.316Z,57.93
2024-03-07T17:39:00.472Z,57.88
2024-03-07T17:41:27.772Z,58.13
2024-03-07T17:43:55.414Z,58.18
2024-03-07T17:46:26.391Z,58.12
2024-03-07T17:48:53.692Z,58.77
2024-03-07T17:51:21.325Z,59.26
2024-03-07T17:53:50.784Z,59.15
2024-03-07T17:56:18.480Z,59.20
2024-03-07T17:58:46.291Z,59.39
2024-03-07T18:01:16.869Z,58.72
2024-03-07T18:03:44.483Z,58.72
2024-03-07T18:06:12.241Z,58.97
2024-03-07T18:08:46.010Z,58.98
2024-03-07T18:11:20.452Z,59.12
2024-03-07T18:13:47.931Z,58.89
2024-03-07T18:16:16.046Z,58.70
2024-03-07T18:18:47.203Z,58.78
2024-03-07T18:21:15.248Z,58.82
2024-03-07T18:23:44.303Z,59.28
2024-03-07T18:26:14.596Z,58.99
2024-03-07T18:28:42.034Z,59.34
2024-03-07T18:31:15.674Z,59.62
2024-03-07T18:33:44.871Z,59.13
2024-03-07T18:36:15.146Z,59.36
2024-03-07T18:38:42.695Z,59.38
2024-03-07T18:41:13.370Z,59.24
2024-03-07T18:43:42.510Z,59.16
2024-03-07T18:46:10.692Z,59.68
2024-03-07T18:48:38.406Z,59.10
2024-03-07T18:51:10.214Z,59.23
2024-03-07T18:53:38.708Z,58.84
2024-03-07T18:56:12.747Z,59.04
2024-03-07T18:58:46.965Z,59.25
2024-03-07T19:01:15.292Z,59.40
2024-03-07T19:03:45.197Z,59.31
2024-03-07T19:06:13.347Z,59.31
2024-03-07T19:08:40.973Z,59.38
2024-03-07T19:11:08.535Z,59.55
2024-03-07T19:13:37.598Z,59.55
2024-03-07T19:16:07.572Z,59.68
2024-03-07T19:18:35.384Z,59.96
2024-03-07T19:21:11.463Z,60.11
2024-03-07T19:23:46.546Z,60.18
2024-03-07T19:26:20.882Z,60.40
2024-03-07T19:28:49.644Z,60.68
2024-03-07T19:31:16.937Z,60.29
2024-03-07T19:33:44.909Z,60.83
2024-03-07T19:36:15.909Z,60.88
2024-03-07T19:38:49.237Z,60.94
2024-03-07T19:41:17.020Z,61.05
2024-03-07T19:43:44.633Z,60.84
2024-03-07T19:46:13.021Z,60.99
2024-03-07T19:48:40.630Z,60.94
2024-03-07T19:51:10.794Z,61.46
2024-03-07T19:53:39.589Z,61.54
2024-03-07T19:56:09.284Z,61.48
2024-03-07T19:58:39.220Z,61.79
2024-03-07T20:01:07.086Z,61.74
2024-03-07T20:03:34.869Z,61.60
2024-03-07T20:06:02.330Z,61.67
2024-03-07T20:08:30.028Z,61.55
2024-03-07T20:10:59.127Z,61.38
2024-03-07T20:13:26.731Z,61.76
2024-03-07T20:15:56.047Z,62.14
2024-03-07T20:18:25.480Z,61.74
2024-03-07T20:20:53.695Z,62.00
2024-03-07T20:23:21.628Z,61.91
2024-03-07T20:25:49.125Z,62.71
2024-03-07T20:28:16.480Z,62.87
2024-03-07T20:30:47.119Z,62.35
2024-03-07T20:33:16.111Z,62.68
2024-03-07T20:35:44.704Z,62.69
2024-03-07T20:38:16.392Z,62.82
2024-03-07T20:40:44.257Z,62.99
2024-03-07T20:43:12.622Z,63.01
2024-03-07T20:45:41.752Z,63.13
2024-03-07T20:48:13.695Z,62.87
2024-03-07T20:50:42.309Z,63.18
2024-03-07T20:53:11.641Z,63.07
2024-03-07T20:55:42.199Z,63.32
2024-03-07T20:58:12.194Z,63.52
2024-03-07T21:00:46.760Z,63.81
2024-03-07T21:03:16.451Z,63.93
2024-03-07T21:05:45.802Z,64.19
2024-03-07T21:08:13.639Z,64.15
2024-03-07T21:10:42.551Z,64.68
2024-03-07T21:13:10.670Z,64.15
2024-03-07T21:15:40.404Z,64.69
2024-03-07T21:18:09.370Z,65.04
2024-03-07T21:20:37.836Z,64.48
2024-03-07T21:23:08.871Z,65.17
2024-03-07T21:25:37.286Z,64.99
2024-03-07T21:28:08.205Z,65.07
2024-03-07T21:30:36.825Z,65.18
2024-03-07T21:33:06.259Z,65.04
2024-03-07T21:35:35.389Z,65.03
2024-03-07T21:38:03.368Z,65.35
2024-03-07T21:40:30.943Z,65.33
2024-03-07T21:42:58.635Z,65.66
2024-03-07T21:45:28.112Z,65.31
2024-03-07T21:47:57.217Z,65.27
2024-03-07T21:50:27.754Z,65.07
2024-03-07T21:52:55.502Z,65.61
2024-03-07T21:55:25.530Z,65.40
2024-03-07T21:57:57.257Z,65.44
2024-03-07T22:00:29.746Z,65.69
2024-03-07T22:03:01.448Z,65.77
2024-03-07T22:05:32.284Z,65.79
2024-03-07T22:08:00.861Z,65.51
2024-03-07T22:10:31.119Z,65.95
2024-03-07T22:12:58.818Z,65.75
2024-03-07T22:15:26.389Z,66.19
2024-03-07T22:17:54.834Z,66.35
2024-03-07T22:20:24.623Z,66.25
2024-03-07T22:22:53.311Z,66.52
2024-03-07T22:25:26.648Z,66.49
2024-03-07T22:27:54.713Z,66.18
2024-03-07T22:30:23.387Z,65.96
2024-03-07T22:32:52.495Z,66.36
2024-03-07T22:35:20.356Z,66.07
2024-03-07T22:37:48.896Z,66.50
2024-03-07T22:40:16.934Z,66.53
2024-03-07T22:42:46.449Z,66.23
2024-03-07T22:45:17.166Z,66.59
2024-03-07T22:47:47.337Z,66.79
2024-03-07T22:50:26.194Z,66.85
2024-03-07T22:53:02.842Z,66.61
2024-03-07T22:55:31.809Z,66.96
2024-03-07T22:58:01.734Z,66.51
2024-03-07T23:00:33.287Z,66.86
2024-03-07T23:03:05.981Z,67.17
2024-03-07T23:05:33.895Z,67.43
2024-03-07T23:08:02.004Z,67.41
2024-03-07T23:10:29.958Z,67.70
2024-03-07T23:13:00.437Z,67.33
2024-03-07T23:15:28.832Z,67.85
2024-03-07T23:17:58.671Z,67.38
2024-03-07T23:20:27.860Z,67.61
2024-03-07T23:22:57.266Z,67.70
2024-03-07T23:25:25.442Z,67.96
2024-03-07T23:27:53.793Z,67.86
2024-03-07T23:30:23.428Z,68.08
2024-03-07T23:32:52.805Z,68.13
2024-03-07T23:35:21.344Z,68.18
2024-03-07T23:37:49.239Z,68.23
2024-03-07T23:40:17.033Z,68.11
2024-03-07T23:42:45.083Z,68.31
2024-03-07T23:45:15.550Z,68.42
2024-03-07T23:47:43.633Z,68.28
2024-03-07T23:50:12.879Z,68.40
2024-03-07T23:52:44.297Z,68.96
2024-03-07T23:55:12.721Z,68.72
2024-03-07T23:57:41.181Z,69.10
